Time;durP1;ratioP1;P1;durP2;ratioP2;P2;SDS_P1;SDS_P2;PMS_P1;PMS_P2;Temp;Humidity;BMP_temperature;BMP_pressure;BME280_temperature;BME280_humidity;BME280_pressure;Samples;Min_cycle;Max_cycle;Signal;HPM_P1;HPM_P2
2023/06/16 00:00:11;;;;;;;6.93;4.20;;;;;;;15.44;100.00;101250.94;6195393;23;20024;-87
2023/06/16 00:02:43;;;;;;;7.38;4.10;;;;;;;15.31;100.00;101230.81;6222253;23;20004;-88
2023/06/16 00:05:10;;;;;;;7.53;4.75;;;;;;;15.35;100.00;101248.38;6221338;23;20091;-87
2023/06/16 00:07:36;;;;;;;9.52;4.28;;;;;;;15.29;100.00;101246.41;6246856;23;20404;-87
2023/06/16 00:10:07;;;;;;;7.03;3.92;;;;;;;15.23;100.00;101246.38;6220655;23;20011;-86
2023/06/16 00:12:33;;;;;;;7.20;4.50;;;;;;;15.00;100.00;101230.31;6220499;23;20071;-87
2023/06/16 00:14:59;;;;;;;7.50;4.47;;;;;;;15.09;100.00;101234.59;6170095;23;20001;-87
2023/06/16 00:17:26;;;;;;;7.35;4.25;;;;;;;15.10;100.00;101236.25;6195427;23;20008;-88
2023/06/16 00:19:51;;;;;;;7.82;4.45;;;;;;;15.03;100.00;101230.78;6220282;23;20004;-89
2023/06/16 00:22:17;;;;;;;6.38;4.13;;;;;;;15.02;100.00;101239.09;6195265;23;20015;-88
2023/06/16 00:24:45;;;;;;;6.35;4.20;;;;;;;14.87;100.00;101225.59;6220692;23;20435;-87
2023/06/16 00:27:11;;;;;;;6.15;4.00;;;;;;;14.82;100.00;101238.88;6220208;23;20046;-89
2023/06/16 00:29:38;;;;;;;7.30;3.95;;;;;;;14.68;100.00;101227.91;6220228;23;20043;-87
2023/06/16 00:32:04;;;;;;;7.72;3.92;;;;;;;14.65;100.00;101241.81;6220725;23;20020;-86
2023/06/16 00:34:29;;;;;;;9.45;5.20;;;;;;;14.59;100.00;101229.06;6220460;23;20015;-87
2023/06/16 00:36:55;;;;;;;7.78;4.78;;;;;;;14.61;100.00;101234.28;6251068;23;20004;-86
2023/06/16 00:39:21;;;;;;;10.05;4.47;;;;;;;14.69;100.00;101226.06;6205156;23;19996;-86
2023/06/16 00:41:47;;;;;;;9.10;4.57;;;;;;;14.64;100.00;101221.22;6225148;23;20000;-87
2023/06/16 00:44:12;;;;;;;8.57;4.88;;;;;;;14.51;100.00;101216.44;6195041;23;20022;-88
2023/06/16 00:46:38;;;;;;;9.88;5.45;;;;;;;14.57;100.00;101225.69;6194970;23;20007;-87
2023/06/16 00:49:04;;;;;;;9.02;5.18;;;;;;;14.50;100.00;101233.72;6170269;23;20019;-87
2023/06/16 00:51:30;;;;;;;7.88;4.78;;;;;;;14.47;100.00;101228.69;6219880;23;20015;-86
2023/06/16 00:53:56;;;;;;;8.30;4.35;;;;;;;14.54;100.00;101236.91;6170372;23;20004;-88
2023/06/16 00:56:23;;;;;;;8.35;4.65;;;;;;;14.52;100.00;101222.69;6194880;23;20004;-89
2023/06/16 00:58:51;;;;;;;10.50;5.30;;;;;;;14.48;100.00;101221.41;6170534;23;20091;-88
2023/06/16 01:01:17;;;;;;;10.40;5.05;;;;;;;14.44;100.00;101210.13;6230498;23;20007;-86
2023/06/16 01:03:44;;;;;;;10.35;4.80;;;;;;;14.39;100.00;101223.38;6246764;22;20028;-86
2023/06/16 01:06:17;;;;;;;10.15;5.30;;;;;;;14.23;100.00;101207.34;6220186;23;20322;-89
2023/06/16 01:08:54;;;;;;;8.15;4.68;;;;;;;14.28;100.00;101226.56;6245480;23;20028;-89
2023/06/16 01:11:35;;;;;;;8.23;4.68;;;;;;;14.28;100.00;101215.75;6245442;23;20012;-86
2023/06/16 01:14:19;;;;;;;8.75;4.70;;;;;;;14.25;100.00;101211.56;6245224;23;20020;-88
2023/06/16 01:16:46;;;;;;;8.68;5.28;;;;;;;14.21;100.00;101220.22;6220000;23;20012;-88
2023/06/16 01:19:53;;;;;;;10.15;4.95;;;;;;;14.08;100.00;101210.94;6245212;23;20004;-88
2023/06/16 01:22:47;;;;;;;7.63;4.47;;;;;;;14.07;100.00;101219.22;6194687;23;20425;-88
2023/06/16 01:25:14;;;;;;;12.88;4.68;;;;;;;14.02;100.00;101217.06;6195086;23;20008;-89
2023/06/16 01:27:47;;;;;;;7.70;4.40;;;;;;;14.02;100.00;101214.38;6194797;23;20038;-88
2023/06/16 01:30:15;;;;;;;9.73;4.95;;;;;;;13.98;100.00;101218.47;6245269;23;19996;-89
2023/06/16 01:32:46;;;;;;;7.53;4.40;;;;;;;13.85;100.00;101204.78;6246555;22;20012;-88
2023/06/16 01:35:12;;;;;;;7.15;4.57;;;;;;;13.76;100.00;101200.47;6219973;23;20027;-88
2023/06/16 01:37:38;;;;;;;7.40;4.60;;;;;;;13.84;100.00;101203.13;6245247;23;20087;-88
2023/06/16 01:40:05;;;;;;;7.95;4.63;;;;;;;13.81;100.00;101206.16;6244989;23;20460;-88
2023/06/16 01:42:31;;;;;;;6.88;3.88;;;;;;;13.73;100.00;101190.03;6194731;23;20004;-87
2023/06/16 01:44:57;;;;;;;6.35;4.10;;;;;;;13.57;100.00;101185.66;6219511;23;20001;-87
2023/06/16 01:47:23;;;;;;;7.80;4.53;;;;;;;13.46;100.00;101189.66;6219725;23;20004;-87
2023/06/16 01:49:50;;;;;;;8.88;4.28;;;;;;;13.39;100.00;101194.97;6244943;23;20004;-86
2023/06/16 01:52:16;;;;;;;10.20;4.90;;;;;;;13.32;100.00;101194.00;6194701;23;20333;-87
2023/06/16 01:54:41;;;;;;;7.30;4.43;;;;;;;13.30;100.00;101195.22;6244636;23;20004;-86
2023/06/16 01:57:07;;;;;;;10.75;5.07;;;;;;;13.28;100.00;101199.97;6245036;23;20007;-87
2023/06/16 01:59:33;;;;;;;8.07;3.58;;;;;;;13.35;100.00;101199.03;6194603;23;20034;-88
2023/06/16 02:02:07;;;;;;;8.80;4.10;;;;;;;13.36;100.00;101198.03;6246442;22;20054;-86
2023/06/16 02:04:35;;;;;;;7.90;3.85;;;;;;;13.48;100.00;101197.59;6221365;23;20000;-86
2023/06/16 02:07:09;;;;;;;9.15;4.18;;;;;;;13.47;100.00;101185.94;6221640;23;20016;-87
2023/06/16 02:09:38;;;;;;;8.85;4.95;;;;;;;13.54;100.00;101191.44;6196744;23;20007;-86
2023/06/16 02:12:05;;;;;;;12.35;4.82;;;;;;;13.55;100.00;101187.72;6221807;23;20303;-87
2023/06/16 02:14:33;;;;;;;9.77;4.78;;;;;;;13.54;100.00;101186.88;6221953;23;20008;-87
2023/06/16 02:16:59;;;;;;;8.35;4.63;;;;;;;13.54;100.00;101186.88;6221347;23;20000;-87
2023/06/16 02:19:28;;;;;;;10.55;4.82;;;;;;;13.50;100.00;101190.97;6196586;23;20005;-86
2023/06/16 02:21:57;;;;;;;11.20;4.72;;;;;;;13.46;100.00;101203.16;6196859;23;20004;-85
2023/06/16 02:24:23;;;;;;;9.38;4.93;;;;;;;13.29;100.00;101174.66;6196897;23;20429;-86
2023/06/16 02:26:49;;;;;;;7.22;4.95;;;;;;;13.32;100.00;101190.47;6221462;23;20059;-86
2023/06/16 02:29:15;;;;;;;8.32;4.95;;;;;;;13.26;100.00;101188.47;6196018;23;20000;-87
2023/06/16 02:31:46;;;;;;;9.20;4.75;;;;;;;13.20;100.00;101180.09;6221688;23;20012;-85
2023/06/16 02:34:11;;;;;;;10.13;5.40;;;;;;;13.13;100.00;101173.75;6196050;23;20000;-87
2023/06/16 02:36:37;;;;;;;9.20;5.03;;;;;;;13.07;100.00;101157.41;6196109;23;20027;-85
2023/06/16 02:39:03;;;;;;;8.27;4.85;;;;;;;13.20;100.00;101160.31;6196683;23;20050;-87
2023/06/16 02:41:28;;;;;;;8.23;3.67;;;;;;;13.40;100.00;101185.00;6221214;23;20004;-86
2023/06/16 02:43:54;;;;;;;9.95;4.80;;;;;;;13.48;100.00;101176.81;6221046;23;20058;-88
2023/06/16 02:46:19;;;;;;;10.25;5.03;;;;;;;13.55;100.00;101177.75;6196297;23;20425;-87
2023/06/16 02:48:45;;;;;;;8.88;5.00;;;;;;;13.51;100.00;101167.50;6196020;23;19997;-86
2023/06/16 02:51:11;;;;;;;9.77;5.45;;;;;;;13.39;100.00;101150.91;6221131;23;20007;-89
2023/06/16 02:53:39;;;;;;;8.23;4.65;;;;;;;13.46;100.00;101159.94;6247631;23;20080;-87
2023/06/16 02:56:06;;;;;;;10.35;4.95;;;;;;;13.39;100.00;101150.91;6221701;23;20024;-85
2023/06/16 02:58:32;;;;;;;8.50;5.47;;;;;;;13.31;100.00;101145.56;6252662;23;20011;-87
2023/06/16 03:00:58;;;;;;;9.95;5.13;;;;;;;13.39;100.00;101167.97;6259833;23;20000;-86
2023/06/16 03:03:25;;;;;;;9.48;4.88;;;;;;;13.38;100.00;101176.22;6223753;23;20325;-86
2023/06/16 03:05:51;;;;;;;10.30;5.38;;;;;;;13.32;100.00;101156.19;6171463;23;20008;-86
2023/06/16 03:08:16;;;;;;;10.40;4.97;;;;;;;13.30;100.00;101149.31;6221150;23;20015;-87
2023/06/16 03:10:42;;;;;;;10.00;4.60;;;;;;;13.28;100.00;101154.03;6220827;23;20004;-87
2023/06/16 03:13:08;;;;;;;8.43;4.28;;;;;;;13.32;100.00;101152.66;6195867;23;20004;-87
2023/06/16 03:15:36;;;;;;;9.18;6.00;;;;;;;13.24;100.00;101150.84;6220589;23;20008;-87
2023/06/16 03:18:02;;;;;;;9.95;4.90;;;;;;;13.22;100.00;101144.78;6221532;23;20433;-86
2023/06/16 03:20:27;;;;;;;10.07;5.57;;;;;;;13.27;100.00;101153.22;6221076;23;20007;-85
2023/06/16 03:22:53;;;;;;;9.93;4.82;;;;;;;13.30;100.00;101135.81;6220880;23;20321;-86
2023/06/16 03:25:21;;;;;;;10.98;5.95;;;;;;;13.43;100.00;101146.81;6220609;23;20011;-86
2023/06/16 03:27:47;;;;;;;10.60;5.75;;;;;;;13.53;100.00;101157.34;6247263;23;20007;-86
2023/06/16 03:30:13;;;;;;;10.73;5.88;;;;;;;13.61;100.00;101159.97;6170840;23;20004;-87
2023/06/16 03:32:38;;;;;;;11.40;6.03;;;;;;;13.55;100.00;101145.34;6220840;23;20012;-87
2023/06/16 03:35:06;;;;;;;12.18;6.28;;;;;;;13.61;100.00;101158.09;6220576;23;20054;-87
2023/06/16 03:37:32;;;;;;;11.40;6.03;;;;;;;13.55;100.00;101156.13;6220980;23;20452;-88
2023/06/16 03:40:05;;;;;;;11.52;5.97;;;;;;;13.62;100.00;101167.03;6195527;23;20000;-84
2023/06/16 03:42:35;;;;;;;11.88;5.90;;;;;;;13.62;100.00;101167.03;6197497;23;20050;-87
2023/06/16 03:45:01;;;;;;;11.30;5.82;;;;;;;13.67;100.00;101163.78;6170772;23;20004;-87
2023/06/16 03:47:27;;;;;;;10.25;5.78;;;;;;;13.53;100.00;101141.13;6195620;23;20424;-86
2023/06/16 03:49:53;;;;;;;10.43;5.65;;;;;;;13.68;100.00;101157.34;6220682;23;20076;-87
2023/06/16 03:52:19;;;;;;;10.07;5.63;;;;;;;13.53;100.00;101136.56;6220261;23;20004;-86
2023/06/16 03:54:45;;;;;;;12.15;5.60;;;;;;;13.70;100.00;101158.81;6246970;23;20007;-87
2023/06/16 03:57:12;;;;;;;10.32;4.97;;;;;;;13.70;100.00;101163.41;6220725;23;20004;-85
2023/06/16 03:59:38;;;;;;;11.65;5.93;;;;;;;13.68;100.00;101157.34;6247112;23;20336;-87
2023/06/16 04:02:07;;;;;;;10.30;4.93;;;;;;;13.55;100.00;101142.63;6240858;23;20083;-86
2023/06/16 04:04:36;;;;;;;7.50;4.70;;;;;;;13.70;100.00;101168.81;6245468;23;20397;-86
2023/06/16 04:07:02;;;;;;;10.85;5.22;;;;;;;13.69;100.00;101156.31;6195385;23;20034;-87
2023/06/16 04:09:30;;;;;;;11.23;5.45;;;;;;;13.73;100.00;101161.16;6247279;22;20016;-86
2023/06/16 04:11:56;;;;;;;9.98;5.80;;;;;;;13.73;100.00;101154.91;6245749;23;19996;-85
2023/06/16 04:14:22;;;;;;;9.63;5.25;;;;;;;13.74;100.00;101151.19;6220738;23;20054;-88
2023/06/16 04:16:47;;;;;;;9.98;5.60;;;;;;;13.80;100.00;101150.44;6220277;23;20004;-87
2023/06/16 04:19:17;;;;;;;10.57;5.75;;;;;;;13.79;100.00;101143.38;6219996;23;20062;-87
2023/06/16 04:21:43;;;;;;;7.47;4.90;;;;;;;13.89;100.00;101143.06;6195935;23;20008;-89
2023/06/16 04:24:10;;;;;;;8.98;5.00;;;;;;;13.88;100.00;101139.53;6245266;23;20059;-88
2023/06/16 04:26:37;;;;;;;9.88;5.43;;;;;;;13.94;100.00;101135.22;6219951;23;20008;-87
2023/06/16 04:29:04;;;;;;;8.23;5.22;;;;;;;13.97;100.00;101127.59;6245586;23;20000;-86
2023/06/16 04:31:32;;;;;;;13.43;5.45;;;;;;;13.97;100.00;101142.97;6222740;23;19996;-87
2023/06/16 04:33:59;;;;;;;7.25;4.00;;;;;;;13.98;100.00;101131.97;6245557;23;20035;-86
2023/06/16 04:36:29;;;;;;;7.95;4.93;;;;;;;14.03;100.00;101126.84;6245640;23;20027;-87
2023/06/16 04:38:56;;;;;;;9.77;5.85;;;;;;;13.97;100.00;101105.13;6220109;23;20012;-86
2023/06/16 04:41:23;;;;;;;10.40;5.88;;;;;;;14.07;100.00;101122.72;6246839;22;20004;-88
2023/06/16 04:43:48;;;;;;;10.48;5.63;;;;;;;14.08;100.00;101129.81;6245928;23;19997;-87
2023/06/16 04:46:14;;;;;;;6.32;3.13;;;;;;;13.96;100.00;101106.97;6220323;23;20015;-87
2023/06/16 04:48:39;;;;;;;10.57;5.47;;;;;;;14.13;100.00;101131.09;6219925;23;20008;-88
2023/06/16 04:51:05;;;;;;;7.90;4.28;;;;;;;14.12;100.00;101130.25;6220083;23;20004;-88
2023/06/16 04:53:31;;;;;;;9.75;6.03;;;;;;;14.12;100.00;101119.44;6245344;23;20004;-86
2023/06/16 04:55:57;;;;;;;9.75;6.35;;;;;;;14.10;100.00;101120.66;6245120;23;20508;-89
2023/06/16 04:58:23;;;;;;;8.80;5.25;;;;;;;14.10;100.00;101128.78;6219699;23;20036;-88
2023/06/16 05:00:49;;;;;;;11.10;5.65;;;;;;;13.95;100.00;101097.22;6194761;23;20031;-88
2023/06/16 05:03:16;;;;;;;8.48;4.88;;;;;;;14.21;100.00;101123.72;6245289;23;20003;-87
2023/06/16 05:05:42;;;;;;;8.18;5.10;;;;;;;14.21;100.00;101129.13;6220128;23;20012;-88
2023/06/16 05:08:07;;;;;;;10.82;5.63;;;;;;;14.24;100.00;101126.03;6245388;23;20329;-88
2023/06/16 05:10:33;;;;;;;10.77;5.35;;;;;;;14.09;100.00;101090.09;6220026;23;20086;-86
2023/06/16 05:12:59;;;;;;;9.23;5.80;;;;;;;14.29;100.00;101130.88;6245265;23;20004;-88
2023/06/16 05:15:25;;;;;;;9.98;5.68;;;;;;;14.32;100.00;101126.97;6245603;23;20004;-88
2023/06/16 05:17:51;;;;;;;8.35;4.50;;;;;;;14.23;100.00;101104.56;6256044;23;20001;-86
2023/06/16 05:20:16;;;;;;;10.70;6.22;;;;;;;14.35;100.00;101127.41;6234475;23;20329;-86
2023/06/16 05:22:42;;;;;;;9.52;5.35;;;;;;;14.38;100.00;101137.00;6218291;23;20012;-88
2023/06/16 05:25:08;;;;;;;9.48;6.30;;;;;;;14.34;100.00;101122.16;6227595;23;20071;-87
2023/06/16 05:27:33;;;;;;;9.15;5.68;;;;;;;14.46;100.00;101129.59;6219975;23;20008;-87
2023/06/16 05:30:00;;;;;;;9.00;5.68;;;;;;;14.57;100.00;101130.16;6245163;23;20091;-87
2023/06/16 05:32:25;;;;;;;9.70;5.63;;;;;;;14.65;100.00;101130.03;6245054;23;20425;-87
2023/06/16 05:34:52;;;;;;;12.48;6.28;;;;;;;14.73;100.00;101128.00;6220020;23;20024;-88
2023/06/16 05:37:18;;;;;;;10.27;4.80;;;;;;;14.81;100.00;101121.63;6219413;23;20012;-86
2023/06/16 05:39:48;;;;;;;12.40;6.55;;;;;;;14.90;100.00;101123.19;6244982;23;20097;-87
2023/06/16 05:42:15;;;;;;;8.93;5.45;;;;;;;15.04;100.00;101128.72;6219809;23;19996;-88
2023/06/16 05:44:44;;;;;;;9.80;3.92;;;;;;;15.13;100.00;101128.34;6194767;23;20047;-86
2023/06/16 05:47:10;;;;;;;10.77;6.32;;;;;;;15.23;100.00;101128.00;6194990;23;20032;-87
2023/06/16 05:49:36;;;;;;;8.02;5.10;;;;;;;15.29;100.00;101129.91;6245119;23;20008;-87
2023/06/16 05:52:03;;;;;;;11.13;5.32;;;;;;;15.40;100.00;101136.69;6244745;23;20027;-88
2023/06/16 05:54:29;;;;;;;7.15;4.35;;;;;;;15.45;100.00;101119.81;6220006;23;20012;-89
2023/06/16 05:56:56;;;;;;;10.65;5.40;;;;;;;15.33;100.00;101081.63;6244764;23;20075;-88
2023/06/16 05:59:21;;;;;;;8.18;4.10;;;;;;;15.77;100.00;101127.34;6219435;23;20007;-88
2023/06/16 06:01:49;;;;;;;10.23;5.30;;;;;;;15.92;100.00;101131.78;6219747;23;20008;-87
2023/06/16 06:04:15;;;;;;;8.15;4.78;;;;;;;16.00;100.00;101121.59;6244667;23;20075;-86
2023/06/16 06:06:40;;;;;;;6.32;3.63;;;;;;;16.15;100.00;101126.03;6219278;23;20400;-88
2023/06/16 06:09:06;;;;;;;9.25;4.60;;;;;;;16.21;100.00;101120.63;6244929;23;20049;-88
2023/06/16 06:11:32;;;;;;;8.20;4.32;;;;;;;16.34;100.00;101127.13;6194607;23;20333;-89
2023/06/16 06:13:57;;;;;;;7.28;3.92;;;;;;;16.34;100.00;101122.53;6194528;23;20052;-87
2023/06/16 06:16:23;;;;;;;7.63;4.78;;;;;;;16.38;100.00;101117.50;6194650;23;20336;-88
2023/06/16 06:18:49;;;;;;;5.45;2.33;;;;;;;16.42;100.00;101119.63;6244953;23;20421;-86
2023/06/16 06:21:15;;;;;;;7.55;4.13;;;;;;;16.48;100.00;101121.53;6219362;23;20444;-87
2023/06/16 06:23:41;;;;;;;6.97;4.40;;;;;;;16.61;100.00;101115.25;6219549;23;20336;-86
2023/06/16 06:26:07;;;;;;;6.40;4.13;;;;;;;16.61;100.00;101104.41;6193946;23;20012;-87
2023/06/16 06:28:32;;;;;;;5.72;4.10;;;;;;;16.65;100.00;101094.81;6219375;23;20008;-89
2023/06/16 06:30:58;;;;;;;6.50;4.40;;;;;;;16.88;100.00;101113.47;6246211;22;20004;-88
2023/06/16 06:33:23;;;;;;;6.47;3.85;;;;;;;16.95;100.00;101102.56;6244823;23;20000;-88
2023/06/16 06:35:49;;;;;;;8.32;4.00;;;;;;;17.16;100.00;101106.94;6219581;23;20000;-86
2023/06/16 06:38:15;;;;;;;5.47;3.30;;;;;;;17.31;100.00;101093.16;6219128;23;20005;-89
2023/06/16 06:40:40;;;;;;;5.53;3.53;;;;;;;17.54;100.00;101095.38;6219703;23;20459;-86
2023/06/16 06:43:06;;;;;;;8.80;4.30;;;;;;;17.77;100.00;101109.31;6244369;23;20030;-85
2023/06/16 06:45:31;;;;;;;5.28;3.17;;;;;;;18.01;100.00;101093.34;6246459;22;20001;-89
2023/06/16 06:47:57;;;;;;;4.80;2.80;;;;;;;18.31;100.00;101103.66;6219210;23;20460;-89
2023/06/16 06:50:23;;;;;;;5.07;3.60;;;;;;;18.73;100.00;101102.09;6247171;22;20099;-88
2023/06/16 06:52:48;;;;;;;5.15;3.53;;;;;;;19.13;100.00;101104.50;6220823;23;20004;-87
2023/06/16 06:55:14;;;;;;;5.28;3.65;;;;;;;19.82;100.00;101105.28;6196366;23;20032;-87
2023/06/16 06:57:42;;;;;;;6.32;3.25;;;;;;;20.12;100.00;101104.50;6223131;23;20008;-88
2023/06/16 07:00:08;;;;;;;8.23;3.05;;;;;;;20.46;97.47;101102.13;6227297;23;20001;-86
2023/06/16 07:02:35;;;;;;;5.05;3.22;;;;;;;21.03;95.54;101105.22;6190321;23;20004;-87
2023/06/16 07:05:01;;;;;;;5.05;3.13;;;;;;;22.71;87.08;101096.94;6229101;23;20011;-87
2023/06/16 07:07:26;;;;;;;4.60;3.08;;;;;;;24.45;75.29;101113.06;6175779;23;20004;-89
2023/06/16 07:09:52;;;;;;;5.82;2.88;;;;;;;25.33;66.68;101109.94;6247989;23;20004;-89
2023/06/16 07:12:18;;;;;;;5.55;2.92;;;;;;;25.02;66.13;101098.69;6196253;23;20337;-87
2023/06/16 07:14:46;;;;;;;6.05;2.83;;;;;;;24.48;62.74;101108.97;6221281;23;20016;-89
2023/06/16 07:17:12;;;;;;;4.30;2.92;;;;;;;25.74;61.10;101109.31;6196066;23;20400;-88
2023/06/16 07:19:37;;;;;;;3.95;2.72;;;;;;;25.44;60.22;101102.56;6247632;23;20427;-88
2023/06/16 07:22:05;;;;;;;4.00;2.72;;;;;;;25.44;56.88;101100.63;6247766;23;20053;-86
2023/06/16 07:24:31;;;;;;;4.38;2.50;;;;;;;24.10;61.75;101100.56;6247362;23;20062;-87
2023/06/16 07:26:59;;;;;;;3.03;2.25;;;;;;;22.99;68.22;101097.94;6195664;23;20047;-87
2023/06/16 07:29:25;;;;;;;3.53;2.80;;;;;;;22.32;71.32;101093.22;6221483;23;20000;-87
2023/06/16 07:31:51;;;;;;;4.47;3.08;;;;;;;22.36;72.52;101097.97;6220889;23;20054;-88
2023/06/16 07:34:17;;;;;;;4.70;2.75;;;;;;;22.02;76.15;101107.16;6247398;23;20000;-86
2023/06/16 07:36:42;;;;;;;3.97;2.83;;;;;;;21.45;75.91;101089.53;6248047;23;20027;-87
2023/06/16 07:39:08;;;;;;;3.85;2.42;;;;;;;21.16;77.99;101098.69;6247634;23;20003;-84
2023/06/16 07:41:34;;;;;;;3.95;2.58;;;;;;;20.93;80.20;101100.34;6220929;23;20007;-84
2023/06/16 07:43:59;;;;;;;5.53;3.08;;;;;;;20.93;81.66;101105.81;6220700;23;20007;-84
2023/06/16 07:46:25;;;;;;;3.40;2.58;;;;;;;20.86;81.09;101105.09;6249466;23;20000;-85
2023/06/16 07:48:51;;;;;;;4.43;2.80;;;;;;;20.81;81.74;101097.59;6222065;23;20004;-86
2023/06/16 07:51:16;;;;;;;4.28;3.10;;;;;;;20.84;82.76;101101.75;6197316;23;20087;-84
2023/06/16 07:53:42;;;;;;;4.47;2.55;;;;;;;20.84;83.34;101094.38;6170669;23;20008;-85
2023/06/16 07:56:08;;;;;;;4.35;2.72;;;;;;;20.71;83.96;101083.66;6220740;23;20000;-85
2023/06/16 07:58:38;;;;;;;3.05;2.47;;;;;;;20.76;83.71;101111.13;6170722;23;20058;-84
2023/06/16 08:01:04;;;;;;;4.97;3.08;;;;;;;20.56;84.73;101100.53;6227832;23;20012;-83
2023/06/16 08:03:33;;;;;;;11.57;4.07;;;;;;;20.38;83.87;101101.38;6245479;23;20003;-84
2023/06/16 08:05:59;;;;;;;34.95;7.00;;;;;;;20.25;85.30;101109.75;6245748;23;20054;-84
2023/06/16 08:08:27;;;;;;;6.95;3.20;;;;;;;20.16;85.90;101112.00;6245730;23;20012;-84
2023/06/16 08:10:57;;;;;;;5.32;3.10;;;;;;;20.07;86.52;101102.44;6245580;23;20007;-84
2023/06/16 08:13:23;;;;;;;3.35;2.60;;;;;;;19.98;86.16;101103.84;6245879;23;20008;-84
2023/06/16 08:15:49;;;;;;;3.25;2.67;;;;;;;19.84;86.95;101105.03;6220435;23;20038;-84
2023/06/16 08:18:18;;;;;;;4.32;2.72;;;;;;;19.69;88.50;101100.00;6195435;23;20080;-85
2023/06/16 08:20:45;;;;;;;3.58;2.20;;;;;;;19.76;89.28;101095.28;6195968;23;20015;-84
2023/06/16 08:23:11;;;;;;;7.97;3.08;;;;;;;19.89;89.25;101100.56;6220042;23;20000;-85
2023/06/16 08:25:37;;;;;;;4.47;3.63;;;;;;;20.03;89.08;101097.66;6195271;23;20008;-87
2023/06/16 08:28:05;;;;;;;4.65;3.00;;;;;;;20.18;87.56;101098.91;6220641;23;20424;-84
2023/06/16 08:30:30;;;;;;;7.35;3.30;;;;;;;20.29;87.95;101088.28;6195485;23;20004;-84
2023/06/16 08:32:56;;;;;;;6.18;3.35;;;;;;;20.31;86.70;101097.91;6220122;23;20054;-85
2023/06/16 08:35:22;;;;;;;6.93;3.22;;;;;;;20.23;86.92;101094.69;6194876;23;20091;-86
2023/06/16 08:37:47;;;;;;;6.53;3.22;;;;;;;20.15;88.79;101096.66;6195108;23;20000;-85
2023/06/16 08:40:13;;;;;;;4.05;3.08;;;;;;;20.03;87.70;101101.25;6220080;23;20009;-84
2023/06/16 08:42:40;;;;;;;3.78;3.00;;;;;;;20.07;88.84;101093.44;6195004;23;20001;-85
2023/06/16 08:45:06;;;;;;;4.68;3.20;;;;;;;20.19;88.89;101094.28;6195063;23;20437;-84
2023/06/16 08:47:34;;;;;;;5.55;2.95;;;;;;;20.29;87.35;101091.00;6194982;23;20012;-84
2023/06/16 08:50:00;;;;;;;4.40;3.40;;;;;;;20.41;87.81;101084.53;6245390;23;20008;-86
2023/06/16 08:52:28;;;;;;;4.88;3.30;;;;;;;20.49;87.04;101080.63;6194865;23;20409;-83
2023/06/16 08:54:57;;;;;;;6.85;3.22;;;;;;;20.56;86.55;101073.19;6220237;23;20364;-84
2023/06/16 08:57:27;;;;;;;4.55;2.92;;;;;;;20.64;86.06;101074.75;6220849;23;20012;-79
2023/06/16 08:59:55;;;;;;;4.15;3.50;;;;;;;20.71;86.66;101074.63;6220571;23;20008;-79
2023/06/16 09:02:21;;;;;;;6.38;3.35;;;;;;;20.76;85.66;101066.56;6218167;23;20080;-80
2023/06/16 09:04:53;;;;;;;5.32;3.03;;;;;;;20.67;85.44;101065.22;6219234;23;20444;-80
2023/06/16 09:07:19;;;;;;;4.45;3.25;;;;;;;20.54;86.89;101063.56;6193028;23;20011;-80
2023/06/16 09:09:46;;;;;;;4.88;3.47;;;;;;;20.47;87.92;101071.81;6242775;23;20000;-79
2023/06/16 09:12:12;;;;;;;6.07;3.40;;;;;;;20.56;87.31;101067.75;6192730;23;20027;-79
2023/06/16 09:14:39;;;;;;;5.68;2.97;;;;;;;20.77;86.27;101073.69;6192636;23;20471;-80
2023/06/16 09:17:07;;;;;;;4.78;3.25;;;;;;;20.92;86.01;101067.78;6219391;23;20448;-80
2023/06/16 09:19:34;;;;;;;4.40;3.38;;;;;;;20.98;85.92;101073.09;6194915;23;20429;-80
2023/06/16 09:22:00;;;;;;;4.10;3.13;;;;;;;21.22;84.31;101070.38;6220012;23;20010;-81
2023/06/16 09:24:28;;;;;;;5.03;2.90;;;;;;;21.42;83.93;101067.31;6194795;23;20004;-81
2023/06/16 09:26:59;;;;;;;4.07;2.88;;;;;;;21.57;83.86;101062.16;6245095;23;20034;-80
2023/06/16 09:29:28;;;;;;;5.13;3.17;;;;;;;21.80;81.66;101068.63;6195052;23;20452;-82
2023/06/16 09:32:07;;;;;;;4.65;3.10;;;;;;;22.26;79.13;101055.88;6194895;23;20082;-80
2023/06/16 09:34:33;;;;;;;3.35;2.80;;;;;;;23.73;74.14;101053.72;6245129;23;20000;-81
2023/06/16 09:36:59;;;;;;;3.88;2.75;;;;;;;24.73;66.97;101058.88;6219728;23;20325;-81
2023/06/16 09:39:26;;;;;;;4.32;2.80;;;;;;;24.97;65.38;101057.38;6194697;23;20004;-81
2023/06/16 09:41:53;;;;;;;3.88;2.45;;;;;;;24.91;61.79;101054.88;6219659;23;20012;-83
2023/06/16 09:44:21;;;;;;;4.53;2.75;;;;;;;24.25;63.62;101046.88;6245096;23;20004;-81
2023/06/16 09:46:48;;;;;;;4.65;2.80;;;;;;;23.59;66.64;101045.03;6219863;23;20051;-80
2023/06/16 09:49:23;;;;;;;3.58;3.10;;;;;;;23.28;68.83;101049.28;6222162;23;20015;-80
2023/06/16 09:51:51;;;;;;;4.03;2.50;;;;;;;23.57;67.77;101040.88;6249963;23;20071;-79
2023/06/16 09:54:18;;;;;;;4.07;2.55;;;;;;;23.58;66.76;101039.81;6220611;23;20046;-80
2023/06/16 09:56:44;;;;;;;4.05;2.47;;;;;;;23.49;68.82;101022.94;6194591;23;20008;-80
2023/06/16 09:59:10;;;;;;;5.45;3.00;;;;;;;23.07;69.13;101028.97;6194534;23;20012;-80
2023/06/16 10:01:38;;;;;;;3.97;2.42;;;;;;;22.45;72.72;101032.63;6193769;23;20008;-80
2023/06/16 10:04:05;;;;;;;3.88;2.83;;;;;;;22.28;74.26;101032.63;6217755;23;20099;-80
2023/06/16 10:06:32;;;;;;;3.83;2.85;;;;;;;22.61;73.44;101026.31;6194405;23;20004;-80
2023/06/16 10:08:58;;;;;;;5.53;2.53;;;;;;;22.71;73.24;101025.66;6194298;23;20015;-81
2023/06/16 10:11:24;;;;;;;4.82;2.95;;;;;;;22.92;72.99;101021.31;6194495;23;20007;-82
2023/06/16 10:14:01;;;;;;;4.10;2.53;;;;;;;22.97;73.05;101023.31;6194463;23;20004;-82
2023/06/16 10:16:28;;;;;;;4.65;3.30;;;;;;;23.08;71.37;101019.66;6219312;23;20016;-79
2023/06/16 10:18:57;;;;;;;3.75;2.75;;;;;;;23.68;68.41;101029.78;6219423;23;20004;-83
2023/06/16 10:21:23;;;;;;;6.57;3.35;;;;;;;23.63;69.67;101024.22;6244361;23;20154;-82
2023/06/16 10:23:50;;;;;;;4.10;3.55;;;;;;;23.18;69.14;101011.59;6194689;23;20015;-80
2023/06/16 10:26:16;;;;;;;5.00;3.35;;;;;;;23.57;69.91;101019.75;6196328;23;20391;-82
2023/06/16 10:28:41;;;;;;;4.05;3.10;;;;;;;24.88;65.24;101011.41;6196502;23;20016;-80
2023/06/16 10:31:09;;;;;;;5.35;3.35;;;;;;;25.52;64.53;101008.44;6196283;23;20424;-82
2023/06/16 10:33:55;;;;;;;4.65;3.60;;;;;;;25.24;61.41;101015.19;6246259;23;20306;-81
2023/06/16 10:36:29;;;;;;;4.55;3.25;;;;;;;24.34;63.33;101017.81;6194863;23;20011;-81
2023/06/16 10:39:00;;;;;;;4.78;3.45;;;;;;;23.20;67.52;101009.38;6221166;23;20090;-83
2023/06/16 10:41:29;;;;;;;4.57;3.08;;;;;;;22.19;73.12;101009.44;6221438;23;20004;-83
2023/06/16 10:43:56;;;;;;;4.22;3.15;;;;;;;21.90;75.43;101008.59;6246268;23;20000;-81
2023/06/16 10:46:24;;;;;;;4.68;3.08;;;;;;;22.03;74.22;100991.88;6196006;23;20016;-80
2023/06/16 10:48:57;;;;;;;4.63;3.28;;;;;;;21.90;75.97;101017.66;6220863;23;20497;-81
2023/06/16 10:51:49;;;;;;;4.80;3.30;;;;;;;21.56;77.87;100999.47;6245903;23;20059;-82
2023/06/16 10:54:33;;;;;;;4.53;3.55;;;;;;;22.86;73.16;101008.59;6222504;23;20004;-83
2023/06/16 10:57:05;;;;;;;8.18;3.78;;;;;;;25.67;62.49;101000.25;6220768;23;20008;-80
2023/06/16 10:59:50;;;;;;;3.90;2.60;;;;;;;24.81;61.31;101003.38;6220656;23;20000;-84
2023/06/16 11:02:24;;;;;;;2.97;2.40;;;;;;;23.78;66.24;101009.03;6195793;23;20332;-81
2023/06/16 11:05:09;;;;;;;3.85;2.83;;;;;;;23.04;68.41;101011.09;6220979;23;20007;-81
2023/06/16 11:08:10;;;;;;;2.88;2.00;;;;;;;22.68;70.95;101008.88;6220342;23;20015;-81
2023/06/16 11:11:03;;;;;;;3.58;2.42;;;;;;;22.79;72.82;101017.00;6195595;23;20086;-80
2023/06/16 11:13:38;;;;;;;5.18;2.65;;;;;;;22.59;71.76;101013.94;6195862;23;20035;-84
2023/06/16 11:16:04;;;;;;;3.65;2.40;;;;;;;21.99;72.91;101004.41;6221030;23;20004;-80
2023/06/16 11:18:35;;;;;;;2.70;2.25;;;;;;;21.82;74.84;100992.59;6195763;23;20352;-80
2023/06/16 11:21:07;;;;;;;2.67;2.00;;;;;;;21.24;78.61;100986.19;6196556;23;20063;-79